sensor_id;sensor_type;location;lat;lon;timestamp;P1;durP1;ratioP1;P2;durP2;ratioP2
291;SDS011;23311;48.776;9.162;2023-03-14T00:00:29;1.37;;;0.50;;
291;SDS011;23311;48.776;9.162;2023-03-14T00:02:58;1.20;;;0.40;;
291;SDS011;23311;48.776;9.162;2023-03-14T00:05:26;0.97;;;0.40;;
291;SDS011;23311;48.776;9.162;2023-03-14T00:07:54;1.33;;;0.40;;
291;SDS011;23311;48.776;9.162;2023-03-14T00:10:22;1.20;;;0.70;;
291;SDS011;23311;48.776;9.162;2023-03-14T00:12:50;0.80;;;0.40;;
291;SDS011;23311;48.776;9.162;2023-03-14T00:15:18;1.10;;;0.57;;
291;SDS011;23311;48.776;9.162;2023-03-14T00:17:46;1.00;;;0.33;;
291;SDS011;23311;48.776;9.162;2023-03-14T00:20:16;1.20;;;0.50;;
291;SDS011;23311;48.776;9.162;2023-03-14T00:22:44;1.10;;;0.50;;
291;SDS011;23311;48.776;9.162;2023-03-14T00:25:12;1.00;;;0.50;;
291;SDS011;23311;48.776;9.162;2023-03-14T00:27:40;3.17;;;0.67;;
291;SDS011;23311;48.776;9.162;2023-03-14T00:30:08;1.87;;;0.63;;
291;SDS011;23311;48.776;9.162;2023-03-14T00:32:37;1.27;;;0.70;;
291;SDS011;23311;48.776;9.162;2023-03-14T00:35:05;1.07;;;0.40;;
291;SDS011;23311;48.776;9.162;2023-03-14T00:37:35;1.10;;;0.60;;
291;SDS011;23311;48.776;9.162;2023-03-14T00:40:04;2.97;;;0.57;;
291;SDS011;23311;48.776;9.162;2023-03-14T00:42:33;1.23;;;0.57;;
291;SDS011;23311;48.776;9.162;2023-03-14T00:45:02;1.17;;;0.50;;
291;SDS011;23311;48.776;9.162;2023-03-14T00:47:31;1.53;;;0.50;;
291;SDS011;23311;48.776;9.162;2023-03-14T00:49:59;1.70;;;0.60;;
291;SDS011;23311;48.776;9.162;2023-03-14T00:52:27;1.10;;;0.40;;
291;SDS011;23311;48.776;9.162;2023-03-14T00:54:56;2.20;;;0.87;;
291;SDS011;23311;48.776;9.162;2023-03-14T00:57:24;1.00;;;0.40;;
291;SDS011;23311;48.776;9.162;2023-03-14T00:59:52;0.90;;;0.40;;
291;SDS011;23311;48.776;9.162;2023-03-14T01:02:20;1.00;;;0.50;;
291;SDS011;23311;48.776;9.162;2023-03-14T01:04:49;1.20;;;0.60;;
291;SDS011;23311;48.776;9.162;2023-03-14T01:07:17;1.23;;;0.60;;
291;SDS011;23311;48.776;9.162;2023-03-14T01:09:45;1.80;;;0.60;;
291;SDS011;23311;48.776;9.162;2023-03-14T01:12:14;1.00;;;0.50;;
291;SDS011;23311;48.776;9.162;2023-03-14T01:14:42;1.00;;;0.50;;
291;SDS011;23311;48.776;9.162;2023-03-14T01:17:10;3.10;;;0.80;;
291;SDS011;23311;48.776;9.162;2023-03-14T01:19:38;0.93;;;0.63;;
291;SDS011;23311;48.776;9.162;2023-03-14T01:22:06;1.50;;;0.53;;
291;SDS011;23311;48.776;9.162;2023-03-14T01:24:35;1.77;;;0.50;;
291;SDS011;23311;48.776;9.162;2023-03-14T01:27:04;1.03;;;0.40;;
291;SDS011;23311;48.776;9.162;2023-03-14T01:29:33;0.80;;;0.30;;
291;SDS011;23311;48.776;9.162;2023-03-14T01:32:01;0.90;;;0.40;;
291;SDS011;23311;48.776;9.162;2023-03-14T01:34:30;1.30;;;0.60;;
291;SDS011;23311;48.776;9.162;2023-03-14T01:36:58;1.70;;;0.40;;
291;SDS011;23311;48.776;9.162;2023-03-14T01:39:26;1.00;;;0.50;;
291;SDS011;23311;48.776;9.162;2023-03-14T01:41:54;1.47;;;0.50;;
291;SDS011;23311;48.776;9.162;2023-03-14T01:44:22;1.67;;;0.40;;
291;SDS011;23311;48.776;9.162;2023-03-14T01:46:52;1.37;;;0.40;;
291;SDS011;23311;48.776;9.162;2023-03-14T01:49:21;1.20;;;0.50;;
291;SDS011;23311;48.776;9.162;2023-03-14T01:51:54;2.00;;;0.40;;
291;SDS011;23311;48.776;9.162;2023-03-14T01:54:27;1.17;;;0.50;;
291;SDS011;23311;48.776;9.162;2023-03-14T01:57:01;0.80;;;0.30;;
291;SDS011;23311;48.776;9.162;2023-03-14T01:59:34;1.33;;;0.40;;
291;SDS011;23311;48.776;9.162;2023-03-14T02:02:05;1.03;;;0.57;;
291;SDS011;23311;48.776;9.162;2023-03-14T02:04:36;0.90;;;0.40;;
291;SDS011;23311;48.776;9.162;2023-03-14T02:07:07;0.90;;;0.50;;
291;SDS011;23311;48.776;9.162;2023-03-14T02:09:39;1.10;;;0.40;;
291;SDS011;23311;48.776;9.162;2023-03-14T02:12:08;1.20;;;0.40;;
291;SDS011;23311;48.776;9.162;2023-03-14T02:14:38;2.40;;;0.50;;
291;SDS011;23311;48.776;9.162;2023-03-14T02:17:09;1.00;;;0.50;;
291;SDS011;23311;48.776;9.162;2023-03-14T02:19:45;1.03;;;0.60;;
291;SDS011;23311;48.776;9.162;2023-03-14T02:22:21;0.93;;;0.40;;
291;SDS011;23311;48.776;9.162;2023-03-14T02:24:51;0.90;;;0.40;;
291;SDS011;23311;48.776;9.162;2023-03-14T02:27:26;1.00;;;0.30;;
291;SDS011;23311;48.776;9.162;2023-03-14T02:29:55;1.20;;;0.50;;
291;SDS011;23311;48.776;9.162;2023-03-14T02:32:26;1.00;;;0.40;;
291;SDS011;23311;48.776;9.162;2023-03-14T02:34:57;0.90;;;0.30;;
291;SDS011;23311;48.776;9.162;2023-03-14T02:37:27;1.33;;;0.47;;
291;SDS011;23311;48.776;9.162;2023-03-14T02:40:01;2.50;;;0.70;;
291;SDS011;23311;48.776;9.162;2023-03-14T02:42:32;1.27;;;0.50;;
291;SDS011;23311;48.776;9.162;2023-03-14T02:45:21;1.33;;;0.57;;
291;SDS011;23311;48.776;9.162;2023-03-14T02:48:01;0.80;;;0.50;;
291;SDS011;23311;48.776;9.162;2023-03-14T02:50:32;1.00;;;0.53;;
291;SDS011;23311;48.776;9.162;2023-03-14T02:53:01;1.40;;;0.60;;
291;SDS011;23311;48.776;9.162;2023-03-14T02:55:30;0.93;;;0.43;;
291;SDS011;23311;48.776;9.162;2023-03-14T02:57:58;1.53;;;0.47;;
291;SDS011;23311;48.776;9.162;2023-03-14T03:00:26;1.90;;;0.90;;
291;SDS011;23311;48.776;9.162;2023-03-14T03:02:55;2.30;;;0.57;;
291;SDS011;23311;48.776;9.162;2023-03-14T03:05:23;1.10;;;0.43;;
291;SDS011;23311;48.776;9.162;2023-03-14T03:07:51;2.33;;;0.97;;
291;SDS011;23311;48.776;9.162;2023-03-14T03:10:19;1.90;;;0.70;;
291;SDS011;23311;48.776;9.162;2023-03-14T03:12:47;1.30;;;0.50;;
291;SDS011;23311;48.776;9.162;2023-03-14T03:15:15;1.30;;;0.60;;
291;SDS011;23311;48.776;9.162;2023-03-14T03:17:43;0.93;;;0.50;;
291;SDS011;23311;48.776;9.162;2023-03-14T03:20:13;1.30;;;0.50;;
291;SDS011;23311;48.776;9.162;2023-03-14T03:22:41;4.57;;;0.77;;
291;SDS011;23311;48.776;9.162;2023-03-14T03:25:09;0.93;;;0.50;;
291;SDS011;23311;48.776;9.162;2023-03-14T03:27:37;1.17;;;0.50;;
291;SDS011;23311;48.776;9.162;2023-03-14T03:30:06;1.10;;;0.50;;
291;SDS011;23311;48.776;9.162;2023-03-14T03:32:35;2.80;;;1.57;;
291;SDS011;23311;48.776;9.162;2023-03-14T03:35:03;1.70;;;0.63;;
291;SDS011;23311;48.776;9.162;2023-03-14T03:37:34;1.07;;;0.40;;
291;SDS011;23311;48.776;9.162;2023-03-14T03:40:02;2.27;;;0.50;;
291;SDS011;23311;48.776;9.162;2023-03-14T03:42:32;2.80;;;0.80;;
291;SDS011;23311;48.776;9.162;2023-03-14T03:45:01;2.33;;;0.80;;
291;SDS011;23311;48.776;9.162;2023-03-14T03:47:29;1.67;;;1.00;;
291;SDS011;23311;48.776;9.162;2023-03-14T03:49:58;2.80;;;0.77;;
291;SDS011;23311;48.776;9.162;2023-03-14T03:52:27;5.00;;;0.73;;
291;SDS011;23311;48.776;9.162;2023-03-14T03:54:57;3.17;;;0.90;;
291;SDS011;23311;48.776;9.162;2023-03-14T03:57:24;1.40;;;0.60;;
291;SDS011;23311;48.776;9.162;2023-03-14T03:59:53;1.10;;;0.53;;
291;SDS011;23311;48.776;9.162;2023-03-14T04:02:21;2.67;;;0.80;;
291;SDS011;23311;48.776;9.162;2023-03-14T04:04:49;4.77;;;0.50;;
291;SDS011;23311;48.776;9.162;2023-03-14T04:07:17;2.50;;;0.43;;
291;SDS011;23311;48.776;9.162;2023-03-14T04:09:45;1.13;;;0.50;;
291;SDS011;23311;48.776;9.162;2023-03-14T04:12:14;1.80;;;0.60;;
291;SDS011;23311;48.776;9.162;2023-03-14T04:14:42;4.30;;;0.80;;
291;SDS011;23311;48.776;9.162;2023-03-14T04:17:10;4.47;;;0.97;;
291;SDS011;23311;48.776;9.162;2023-03-14T04:19:38;2.37;;;0.87;;
291;SDS011;23311;48.776;9.162;2023-03-14T04:22:07;0.90;;;0.40;;
291;SDS011;23311;48.776;9.162;2023-03-14T04:24:34;1.80;;;0.50;;
291;SDS011;23311;48.776;9.162;2023-03-14T04:27:03;1.10;;;0.43;;
291;SDS011;23311;48.776;9.162;2023-03-14T04:29:32;3.10;;;1.00;;
291;SDS011;23311;48.776;9.162;2023-03-14T04:32:00;1.90;;;0.77;;
291;SDS011;23311;48.776;9.162;2023-03-14T04:34:28;2.70;;;0.73;;
291;SDS011;23311;48.776;9.162;2023-03-14T04:36:56;1.63;;;0.60;;
291;SDS011;23311;48.776;9.162;2023-03-14T04:39:24;2.80;;;0.80;;
291;SDS011;23311;48.776;9.162;2023-03-14T04:41:52;2.93;;;0.93;;
291;SDS011;23311;48.776;9.162;2023-03-14T04:44:20;2.70;;;0.73;;
291;SDS011;23311;48.776;9.162;2023-03-14T04:46:50;4.27;;;1.53;;
291;SDS011;23311;48.776;9.162;2023-03-14T04:49:18;3.33;;;1.10;;
291;SDS011;23311;48.776;9.162;2023-03-14T04:51:46;6.93;;;0.73;;
291;SDS011;23311;48.776;9.162;2023-03-14T04:54:14;2.43;;;1.17;;
291;SDS011;23311;48.776;9.162;2023-03-14T04:56:42;1.70;;;0.70;;
291;SDS011;23311;48.776;9.162;2023-03-14T04:59:10;1.50;;;0.67;;
291;SDS011;23311;48.776;9.162;2023-03-14T05:01:38;3.80;;;1.00;;
291;SDS011;23311;48.776;9.162;2023-03-14T05:04:08;2.17;;;1.00;;
291;SDS011;23311;48.776;9.162;2023-03-14T05:06:36;2.43;;;0.60;;
291;SDS011;23311;48.776;9.162;2023-03-14T05:09:05;1.80;;;0.60;;
291;SDS011;23311;48.776;9.162;2023-03-14T05:11:33;1.40;;;0.50;;
291;SDS011;23311;48.776;9.162;2023-03-14T05:14:01;3.73;;;0.73;;
291;SDS011;23311;48.776;9.162;2023-03-14T05:16:29;4.53;;;2.20;;
291;SDS011;23311;48.776;9.162;2023-03-14T05:18:57;2.77;;;1.40;;
291;SDS011;23311;48.776;9.162;2023-03-14T05:21:29;4.50;;;1.97;;
291;SDS011;23311;48.776;9.162;2023-03-14T05:23:57;2.60;;;0.90;;
291;SDS011;23311;48.776;9.162;2023-03-14T05:26:24;3.10;;;0.90;;
291;SDS011;23311;48.776;9.162;2023-03-14T05:28:52;3.60;;;1.43;;
291;SDS011;23311;48.776;9.162;2023-03-14T05:31:21;4.67;;;0.97;;
291;SDS011;23311;48.776;9.162;2023-03-14T05:33:49;1.60;;;1.10;;
291;SDS011;23311;48.776;9.162;2023-03-14T05:36:17;4.60;;;1.20;;
291;SDS011;23311;48.776;9.162;2023-03-14T05:38:46;1.77;;;0.60;;
291;SDS011;23311;48.776;9.162;2023-03-14T05:41:14;3.57;;;1.07;;
291;SDS011;23311;48.776;9.162;2023-03-14T05:43:42;4.00;;;1.13;;
291;SDS011;23311;48.776;9.162;2023-03-14T05:46:10;4.47;;;1.17;;
291;SDS011;23311;48.776;9.162;2023-03-14T05:48:38;2.53;;;1.00;;
291;SDS011;23311;48.776;9.162;2023-03-14T05:51:06;1.97;;;1.10;;
291;SDS011;23311;48.776;9.162;2023-03-14T05:53:34;5.40;;;0.90;;
291;SDS011;23311;48.776;9.162;2023-03-14T05:56:04;6.17;;;1.30;;
291;SDS011;23311;48.776;9.162;2023-03-14T05:58:32;5.20;;;1.73;;
291;SDS011;23311;48.776;9.162;2023-03-14T06:01:01;2.93;;;1.30;;
291;SDS011;23311;48.776;9.162;2023-03-14T06:03:29;4.03;;;1.00;;
291;SDS011;23311;48.776;9.162;2023-03-14T06:05:58;3.60;;;1.37;;
291;SDS011;23311;48.776;9.162;2023-03-14T06:08:28;2.00;;;0.70;;
291;SDS011;23311;48.776;9.162;2023-03-14T06:10:57;4.33;;;1.07;;
291;SDS011;23311;48.776;9.162;2023-03-14T06:13:26;2.50;;;1.00;;
291;SDS011;23311;48.776;9.162;2023-03-14T06:15:54;2.83;;;0.80;;
291;SDS011;23311;48.776;9.162;2023-03-14T06:18:22;3.10;;;0.87;;
291;SDS011;23311;48.776;9.162;2023-03-14T06:20:52;2.30;;;0.90;;
291;SDS011;23311;48.776;9.162;2023-03-14T06:23:21;2.10;;;1.33;;
291;SDS011;23311;48.776;9.162;2023-03-14T06:25:49;2.37;;;1.03;;
291;SDS011;23311;48.776;9.162;2023-03-14T06:28:17;2.57;;;0.60;;
291;SDS011;23311;48.776;9.162;2023-03-14T06:30:46;2.43;;;1.00;;
291;SDS011;23311;48.776;9.162;2023-03-14T06:33:14;3.57;;;1.07;;
291;SDS011;23311;48.776;9.162;2023-03-14T06:35:42;3.83;;;1.20;;
291;SDS011;23311;48.776;9.162;2023-03-14T06:38:11;2.97;;;1.00;;
291;SDS011;23311;48.776;9.162;2023-03-14T06:40:39;2.27;;;1.20;;
291;SDS011;23311;48.776;9.162;2023-03-14T06:43:07;1.90;;;1.00;;
291;SDS011;23311;48.776;9.162;2023-03-14T06:45:35;3.13;;;1.27;;
291;SDS011;23311;48.776;9.162;2023-03-14T06:48:04;7.37;;;1.33;;
291;SDS011;23311;48.776;9.162;2023-03-14T06:50:33;1.50;;;0.70;;
291;SDS011;23311;48.776;9.162;2023-03-14T06:53:01;4.17;;;0.90;;
291;SDS011;23311;48.776;9.162;2023-03-14T06:55:29;3.70;;;1.10;;
291;SDS011;23311;48.776;9.162;2023-03-14T06:57:57;5.63;;;1.27;;
291;SDS011;23311;48.776;9.162;2023-03-14T07:00:25;2.73;;;0.70;;
291;SDS011;23311;48.776;9.162;2023-03-14T07:02:53;2.67;;;0.60;;
291;SDS011;23311;48.776;9.162;2023-03-14T07:05:22;1.30;;;0.70;;
291;SDS011;23311;48.776;9.162;2023-03-14T07:07:51;1.83;;;0.70;;
291;SDS011;23311;48.776;9.162;2023-03-14T07:10:19;1.73;;;0.73;;
291;SDS011;23311;48.776;9.162;2023-03-14T07:12:47;2.60;;;0.60;;
291;SDS011;23311;48.776;9.162;2023-03-14T07:15:15;2.37;;;1.30;;
291;SDS011;23311;48.776;9.162;2023-03-14T07:17:45;1.60;;;0.50;;
291;SDS011;23311;48.776;9.162;2023-03-14T07:20:14;1.30;;;0.60;;
291;SDS011;23311;48.776;9.162;2023-03-14T07:22:44;3.10;;;0.50;;
291;SDS011;23311;48.776;9.162;2023-03-14T07:25:15;1.63;;;0.70;;
291;SDS011;23311;48.776;9.162;2023-03-14T07:27:44;2.80;;;0.50;;
291;SDS011;23311;48.776;9.162;2023-03-14T07:30:13;2.20;;;0.60;;
291;SDS011;23311;48.776;9.162;2023-03-14T07:32:41;1.57;;;0.60;;
291;SDS011;23311;48.776;9.162;2023-03-14T07:35:10;1.50;;;0.40;;
291;SDS011;23311;48.776;9.162;2023-03-14T07:37:41;1.73;;;0.70;;
291;SDS011;23311;48.776;9.162;2023-03-14T07:40:11;2.00;;;0.60;;
291;SDS011;23311;48.776;9.162;2023-03-14T07:42:41;1.10;;;0.43;;
291;SDS011;23311;48.776;9.162;2023-03-14T07:52:13;1.97;;;0.50;;
291;SDS011;23311;48.776;9.162;2023-03-14T07:54:41;1.27;;;0.50;;
291;SDS011;23311;48.776;9.162;2023-03-14T07:57:10;1.20;;;0.70;;
291;SDS011;23311;48.776;9.162;2023-03-14T07:59:38;1.77;;;0.50;;
291;SDS011;23311;48.776;9.162;2023-03-14T08:02:08;2.90;;;0.53;;
291;SDS011;23311;48.776;9.162;2023-03-14T08:04:38;1.50;;;0.60;;
291;SDS011;23311;48.776;9.162;2023-03-14T08:07:06;1.30;;;0.80;;
291;SDS011;23311;48.776;9.162;2023-03-14T08:09:34;3.93;;;0.60;;
291;SDS011;23311;48.776;9.162;2023-03-14T08:12:02;1.83;;;0.80;;
291;SDS011;23311;48.776;9.162;2023-03-14T08:14:32;2.40;;;0.73;;
291;SDS011;23311;48.776;9.162;2023-03-14T08:17:00;1.53;;;0.60;;
291;SDS011;23311;48.776;9.162;2023-03-14T08:19:28;2.97;;;0.60;;
291;SDS011;23311;48.776;9.162;2023-03-14T08:21:56;2.40;;;0.50;;
291;SDS011;23311;48.776;9.162;2023-03-14T08:24:25;1.77;;;0.40;;
291;SDS011;23311;48.776;9.162;2023-03-14T08:26:53;1.10;;;0.40;;
291;SDS011;23311;48.776;9.162;2023-03-14T08:29:21;1.10;;;0.40;;
291;SDS011;23311;48.776;9.162;2023-03-14T08:31:50;1.87;;;0.60;;
291;SDS011;23311;48.776;9.162;2023-03-14T08:34:18;1.30;;;0.37;;
291;SDS011;23311;48.776;9.162;2023-03-14T08:36:55;1.20;;;0.40;;
291;SDS011;23311;48.776;9.162;2023-03-14T08:39:23;2.27;;;0.97;;
291;SDS011;23311;48.776;9.162;2023-03-14T08:41:51;3.43;;;0.50;;
291;SDS011;23311;48.776;9.162;2023-03-14T08:44:23;1.40;;;0.47;;
291;SDS011;23311;48.776;9.162;2023-03-14T08:46:53;1.43;;;0.40;;
291;SDS011;23311;48.776;9.162;2023-03-14T08:49:21;2.07;;;0.50;;
291;SDS011;23311;48.776;9.162;2023-03-14T08:51:49;1.03;;;0.40;;
291;SDS011;23311;48.776;9.162;2023-03-14T08:54:17;1.47;;;0.53;;
291;SDS011;23311;48.776;9.162;2023-03-14T08:56:45;1.60;;;0.47;;
291;SDS011;23311;48.776;9.162;2023-03-14T08:59:13;1.43;;;0.30;;
291;SDS011;23311;48.776;9.162;2023-03-14T09:01:41;1.73;;;0.50;;
291;SDS011;23311;48.776;9.162;2023-03-14T09:04:10;1.47;;;0.50;;
291;SDS011;23311;48.776;9.162;2023-03-14T09:06:40;1.10;;;0.50;;
291;SDS011;23311;48.776;9.162;2023-03-14T09:09:08;2.37;;;0.47;;
291;SDS011;23311;48.776;9.162;2023-03-14T09:11:36;1.00;;;0.43;;
291;SDS011;23311;48.776;9.162;2023-03-14T09:14:04;1.73;;;0.60;;
291;SDS011;23311;48.776;9.162;2023-03-14T09:16:33;1.00;;;0.30;;
291;SDS011;23311;48.776;9.162;2023-03-14T09:19:01;1.60;;;0.40;;
291;SDS011;23311;48.776;9.162;2023-03-14T09:21:30;1.77;;;0.50;;
291;SDS011;23311;48.776;9.162;2023-03-14T09:23:58;1.77;;;0.50;;
291;SDS011;23311;48.776;9.162;2023-03-14T09:26:26;1.30;;;0.67;;
291;SDS011;23311;48.776;9.162;2023-03-14T09:28:54;1.00;;;0.40;;
291;SDS011;23311;48.776;9.162;2023-03-14T09:31:24;1.20;;;0.50;;
291;SDS011;23311;48.776;9.162;2023-03-14T09:33:52;1.30;;;0.43;;
291;SDS011;23311;48.776;9.162;2023-03-14T09:36:20;1.10;;;0.40;;
291;SDS011;23311;48.776;9.162;2023-03-14T09:38:49;1.00;;;0.30;;
291;SDS011;23311;48.776;9.162;2023-03-14T09:41:18;1.63;;;0.43;;
291;SDS011;23311;48.776;9.162;2023-03-14T09:43:50;1.20;;;0.40;;
291;SDS011;23311;48.776;9.162;2023-03-14T09:46:26;2.80;;;0.50;;
291;SDS011;23311;48.776;9.162;2023-03-14T09:48:56;1.37;;;0.47;;
291;SDS011;23311;48.776;9.162;2023-03-14T09:51:24;1.20;;;0.60;;
291;SDS011;23311;48.776;9.162;2023-03-14T09:53:54;1.00;;;0.33;;
291;SDS011;23311;48.776;9.162;2023-03-14T09:56:23;1.47;;;0.80;;
291;SDS011;23311;48.776;9.162;2023-03-14T09:58:53;2.50;;;0.70;;
291;SDS011;23311;48.776;9.162;2023-03-14T10:01:25;0.87;;;0.30;;
291;SDS011;23311;48.776;9.162;2023-03-14T10:03:58;0.90;;;0.33;;
291;SDS011;23311;48.776;9.162;2023-03-14T10:06:30;1.70;;;0.40;;
291;SDS011;23311;48.776;9.162;2023-03-14T10:09:00;1.10;;;0.30;;
291;SDS011;23311;48.776;9.162;2023-03-14T10:11:31;1.00;;;0.40;;
291;SDS011;23311;48.776;9.162;2023-03-14T10:14:04;1.47;;;0.40;;
291;SDS011;23311;48.776;9.162;2023-03-14T10:16:34;1.00;;;0.40;;
291;SDS011;23311;48.776;9.162;2023-03-14T10:19:05;0.80;;;0.30;;
291;SDS011;23311;48.776;9.162;2023-03-14T10:21:37;1.67;;;0.40;;
291;SDS011;23311;48.776;9.162;2023-03-14T10:24:09;0.80;;;0.30;;
291;SDS011;23311;48.776;9.162;2023-03-14T10:26:47;0.90;;;0.30;;
291;SDS011;23311;48.776;9.162;2023-03-14T10:29:16;1.23;;;0.33;;
291;SDS011;23311;48.776;9.162;2023-03-14T10:31:49;1.77;;;0.53;;
291;SDS011;23311;48.776;9.162;2023-03-14T10:34:21;1.87;;;0.40;;
291;SDS011;23311;48.776;9.162;2023-03-14T10:36:52;2.03;;;0.43;;
291;SDS011;23311;48.776;9.162;2023-03-14T10:39:24;1.10;;;0.30;;
291;SDS011;23311;48.776;9.162;2023-03-14T10:42:03;1.23;;;0.30;;
291;SDS011;23311;48.776;9.162;2023-03-14T10:44:34;0.80;;;0.30;;
291;SDS011;23311;48.776;9.162;2023-03-14T10:47:03;1.13;;;0.40;;
291;SDS011;23311;48.776;9.162;2023-03-14T10:49:32;1.43;;;0.30;;
291;SDS011;23311;48.776;9.162;2023-03-14T10:52:02;1.20;;;0.57;;
291;SDS011;23311;48.776;9.162;2023-03-14T10:54:42;1.13;;;0.30;;
291;SDS011;23311;48.776;9.162;2023-03-14T10:57:15;1.87;;;0.33;;
291;SDS011;23311;48.776;9.162;2023-03-14T10:59:43;1.00;;;0.40;;
291;SDS011;23311;48.776;9.162;2023-03-14T11:02:17;1.17;;;0.37;;
291;SDS011;23311;48.776;9.162;2023-03-14T11:04:59;1.00;;;0.40;;
291;SDS011;23311;48.776;9.162;2023-03-14T11:07:35;0.97;;;0.40;;
291;SDS011;23311;48.776;9.162;2023-03-14T11:10:14;1.00;;;0.30;;
291;SDS011;23311;48.776;9.162;2023-03-14T11:12:49;1.40;;;0.40;;
291;SDS011;23311;48.776;9.162;2023-03-14T11:15:30;1.30;;;0.30;;
291;SDS011;23311;48.776;9.162;2023-03-14T11:18:20;1.07;;;0.50;;
291;SDS011;23311;48.776;9.162;2023-03-14T11:21:11;1.53;;;0.60;;
291;SDS011;23311;48.776;9.162;2023-03-14T11:23:46;1.27;;;0.53;;
291;SDS011;23311;48.776;9.162;2023-03-14T11:26:27;1.57;;;0.63;;
291;SDS011;23311;48.776;9.162;2023-03-14T11:29:02;1.00;;;0.30;;
291;SDS011;23311;48.776;9.162;2023-03-14T11:31:42;1.00;;;0.37;;
291;SDS011;23311;48.776;9.162;2023-03-14T11:34:13;1.07;;;0.30;;
291;SDS011;23311;48.776;9.162;2023-03-14T11:36:46;1.03;;;0.40;;
291;SDS011;23311;48.776;9.162;2023-03-14T11:39:19;0.80;;;0.30;;
291;SDS011;23311;48.776;9.162;2023-03-14T11:41:50;0.90;;;0.50;;
291;SDS011;23311;48.776;9.162;2023-03-14T11:44:22;1.00;;;0.50;;
291;SDS011;23311;48.776;9.162;2023-03-14T11:46:54;1.20;;;0.30;;
291;SDS011;23311;48.776;9.162;2023-03-14T11:49:30;1.20;;;0.30;;
291;SDS011;23311;48.776;9.162;2023-03-14T11:52:03;0.80;;;0.30;;
291;SDS011;23311;48.776;9.162;2023-03-14T11:54:39;0.83;;;0.30;;
291;SDS011;23311;48.776;9.162;2023-03-14T11:57:14;1.40;;;0.40;;
291;SDS011;23311;48.776;9.162;2023-03-14T11:59:46;1.63;;;0.50;;
291;SDS011;23311;48.776;9.162;2023-03-14T12:02:22;1.30;;;0.40;;
291;SDS011;23311;48.776;9.162;2023-03-14T12:05:14;1.00;;;0.40;;
291;SDS011;23311;48.776;9.162;2023-03-14T12:08:10;0.80;;;0.30;;
291;SDS011;23311;48.776;9.162;2023-03-14T12:10:58;0.80;;;0.30;;
291;SDS011;23311;48.776;9.162;2023-03-14T12:13:32;0.90;;;0.33;;
291;SDS011;23311;48.776;9.162;2023-03-14T12:16:04;0.80;;;0.30;;
291;SDS011;23311;48.776;9.162;2023-03-14T12:18:34;0.80;;;0.30;;
291;SDS011;23311;48.776;9.162;2023-03-14T12:21:06;1.30;;;0.40;;
291;SDS011;23311;48.776;9.162;2023-03-14T12:23:36;0.90;;;0.30;;
291;SDS011;23311;48.776;9.162;2023-03-14T12:26:15;0.80;;;0.30;;
291;SDS011;23311;48.776;9.162;2023-03-14T12:28:50;1.53;;;0.30;;
291;SDS011;23311;48.776;9.162;2023-03-14T12:31:38;1.00;;;0.40;;
291;SDS011;23311;48.776;9.162;2023-03-14T12:34:24;1.00;;;0.37;;
291;SDS011;23311;48.776;9.162;2023-03-14T12:36:57;0.97;;;0.30;;
291;SDS011;23311;48.776;9.162;2023-03-14T12:39:47;0.90;;;0.40;;
291;SDS011;23311;48.776;9.162;2023-03-14T12:42:35;1.17;;;0.50;;
291;SDS011;23311;48.776;9.162;2023-03-14T12:45:21;1.30;;;0.50;;
291;SDS011;23311;48.776;9.162;2023-03-14T12:48:00;1.10;;;0.60;;
291;SDS011;23311;48.776;9.162;2023-03-14T12:50:35;0.97;;;0.40;;
291;SDS011;23311;48.776;9.162;2023-03-14T12:56:17;1.07;;;0.47;;
291;SDS011;23311;48.776;9.162;2023-03-14T12:59:01;2.13;;;0.60;;
291;SDS011;23311;48.776;9.162;2023-03-14T13:01:59;1.00;;;0.60;;
291;SDS011;23311;48.776;9.162;2023-03-14T13:04:31;0.90;;;0.40;;
291;SDS011;23311;48.776;9.162;2023-03-14T13:07:10;1.43;;;0.60;;
291;SDS011;23311;48.776;9.162;2023-03-14T13:12:37;1.27;;;0.67;;
291;SDS011;23311;48.776;9.162;2023-03-14T13:15:13;2.27;;;0.60;;
291;SDS011;23311;48.776;9.162;2023-03-14T13:17:47;1.17;;;0.40;;
291;SDS011;23311;48.776;9.162;2023-03-14T13:20:19;1.33;;;0.40;;
291;SDS011;23311;48.776;9.162;2023-03-14T13:22:51;2.13;;;0.70;;
291;SDS011;23311;48.776;9.162;2023-03-14T13:25:20;2.33;;;0.50;;
291;SDS011;23311;48.776;9.162;2023-03-14T13:27:49;1.17;;;0.50;;
291;SDS011;23311;48.776;9.162;2023-03-14T13:30:23;2.17;;;0.97;;
291;SDS011;23311;48.776;9.162;2023-03-14T13:32:55;1.17;;;0.43;;
291;SDS011;23311;48.776;9.162;2023-03-14T13:35:24;1.23;;;0.50;;
291;SDS011;23311;48.776;9.162;2023-03-14T13:37:55;1.40;;;0.40;;
291;SDS011;23311;48.776;9.162;2023-03-14T13:40:36;1.57;;;0.53;;
291;SDS011;23311;48.776;9.162;2023-03-14T13:43:09;3.27;;;1.43;;
291;SDS011;23311;48.776;9.162;2023-03-14T13:45:43;1.20;;;0.60;;
291;SDS011;23311;48.776;9.162;2023-03-14T13:48:14;1.20;;;0.60;;
291;SDS011;23311;48.776;9.162;2023-03-14T13:50:46;2.00;;;0.50;;
291;SDS011;23311;48.776;9.162;2023-03-14T13:53:18;1.90;;;0.60;;
291;SDS011;23311;48.776;9.162;2023-03-14T13:55:46;1.83;;;0.87;;
291;SDS011;23311;48.776;9.162;2023-03-14T13:58:22;2.40;;;0.70;;
291;SDS011;23311;48.776;9.162;2023-03-14T14:00:53;1.60;;;0.50;;
291;SDS011;23311;48.776;9.162;2023-03-14T14:03:25;2.70;;;0.60;;
291;SDS011;23311;48.776;9.162;2023-03-14T14:05:55;1.90;;;0.60;;
291;SDS011;23311;48.776;9.162;2023-03-14T14:08:25;2.03;;;0.53;;
291;SDS011;23311;48.776;9.162;2023-03-14T14:10:55;1.90;;;0.40;;
291;SDS011;23311;48.776;9.162;2023-03-14T14:13:26;1.57;;;0.67;;
291;SDS011;23311;48.776;9.162;2023-03-14T14:15:58;2.10;;;0.77;;
291;SDS011;23311;48.776;9.162;2023-03-14T14:18:29;1.67;;;0.60;;
291;SDS011;23311;48.776;9.162;2023-03-14T14:20:59;1.53;;;0.50;;
291;SDS011;23311;48.776;9.162;2023-03-14T14:23:28;1.00;;;0.37;;
291;SDS011;23311;48.776;9.162;2023-03-14T14:25:58;1.40;;;0.60;;
291;SDS011;23311;48.776;9.162;2023-03-14T14:28:30;1.47;;;0.60;;
291;SDS011;23311;48.776;9.162;2023-03-14T14:31:03;1.67;;;0.57;;
291;SDS011;23311;48.776;9.162;2023-03-14T14:33:41;1.13;;;0.60;;
291;SDS011;23311;48.776;9.162;2023-03-14T14:36:17;2.17;;;0.50;;
291;SDS011;23311;48.776;9.162;2023-03-14T14:38:52;1.30;;;0.50;;
291;SDS011;23311;48.776;9.162;2023-03-14T14:41:26;1.70;;;0.60;;
291;SDS011;23311;48.776;9.162;2023-03-14T14:43:56;1.30;;;0.50;;
291;SDS011;23311;48.776;9.162;2023-03-14T14:46:25;2.33;;;0.63;;
291;SDS011;23311;48.776;9.162;2023-03-14T14:49:01;1.50;;;0.60;;
291;SDS011;23311;48.776;9.162;2023-03-14T14:51:32;2.77;;;0.70;;
291;SDS011;23311;48.776;9.162;2023-03-14T14:54:13;2.30;;;1.10;;
291;SDS011;23311;48.776;9.162;2023-03-14T14:56:46;2.37;;;0.80;;
291;SDS011;23311;48.776;9.162;2023-03-14T14:59:20;3.80;;;0.80;;
291;SDS011;23311;48.776;9.162;2023-03-14T15:01:56;2.30;;;0.70;;
291;SDS011;23311;48.776;9.162;2023-03-14T15:04:27;2.47;;;0.70;;
291;SDS011;23311;48.776;9.162;2023-03-14T15:06:58;2.50;;;0.90;;
291;SDS011;23311;48.776;9.162;2023-03-14T15:09:26;1.50;;;0.90;;
291;SDS011;23311;48.776;9.162;2023-03-14T15:11:54;2.00;;;0.60;;
291;SDS011;23311;48.776;9.162;2023-03-14T15:14:22;2.40;;;0.60;;
291;SDS011;23311;48.776;9.162;2023-03-14T15:16:50;1.97;;;0.83;;
291;SDS011;23311;48.776;9.162;2023-03-14T15:19:19;3.57;;;1.10;;
291;SDS011;23311;48.776;9.162;2023-03-14T15:21:52;2.53;;;1.00;;
291;SDS011;23311;48.776;9.162;2023-03-14T15:24:21;1.80;;;0.73;;
291;SDS011;23311;48.776;9.162;2023-03-14T15:26:49;1.70;;;0.93;;
291;SDS011;23311;48.776;9.162;2023-03-14T15:29:17;3.97;;;0.90;;
291;SDS011;23311;48.776;9.162;2023-03-14T15:31:45;2.40;;;0.80;;
291;SDS011;23311;48.776;9.162;2023-03-14T15:34:13;4.67;;;1.13;;
291;SDS011;23311;48.776;9.162;2023-03-14T15:36:42;2.23;;;0.80;;
291;SDS011;23311;48.776;9.162;2023-03-14T15:39:12;1.43;;;0.70;;
291;SDS011;23311;48.776;9.162;2023-03-14T15:41:40;2.03;;;0.70;;
291;SDS011;23311;48.776;9.162;2023-03-14T15:44:08;4.00;;;0.60;;
291;SDS011;23311;48.776;9.162;2023-03-14T15:46:36;2.80;;;1.23;;
291;SDS011;23311;48.776;9.162;2023-03-14T15:49:04;3.17;;;1.10;;